sensor_id;sensor_type;location;lat;lon;timestamp;pressure;altitude;pressure_sealevel;temperature;humidity
46382;BME280;66809;52.974;-2.514;2023-03-18T00:01:48;995.1718869381654;;;9.922733733730938;43.38435856831396
46382;BME280;66809;52.974;-2.514;2023-03-18T00:03:48;995.1707147199643;;;9.920891636788891;43.40421279418799
46382;BME280;66809;52.974;-2.514;2023-03-18T00:05:47;995.1704728148229;;;9.91328779291944;43.42288869009306
46382;BME280;66809;52.974;-2.514;2023-03-18T00:07:48;995.1692103702411;;;9.904079161048799;43.44097107238808
46382;BME280;66809;52.974;-2.514;2023-03-18T00:09:48;995.1676259245766;;;9.889478474988572;43.454743374065536
46382;BME280;66809;52.974;-2.514;2023-03-18T00:11:48;995.1672274254327;;;9.877581200804762;43.470560544378245
46382;BME280;66809;52.974;-2.514;2023-03-18T00:13:49;995.1665522743704;;;9.86502857500762;43.48813178771747
46382;BME280;66809;52.974;-2.514;2023-03-18T00:15:50;995.1660589200791;;;9.85021490036609;43.50189532958873
46382;BME280;66809;52.974;-2.514;2023-03-18T00:17:48;995.166034516456;;;9.849995321346984;43.512422366096516
46382;BME280;66809;52.974;-2.514;2023-03-18T00:19:47;995.1660554924686;;;9.833576866816225;43.52539342861852
46382;BME280;66809;52.974;-2.514;2023-03-18T00:21:48;995.1665407760692;;;9.815087189722052;43.53047053253506
46382;BME280;66809;52.974;-2.514;2023-03-18T00:23:48;995.1673516010204;;;9.819496209645287;43.52635869629025
46382;BME280;66809;52.974;-2.514;2023-03-18T00:25:48;995.168660858398;;;9.816656326292227;43.52351078523083
46382;BME280;66809;52.974;-2.514;2023-03-18T00:27:48;995.1708929070236;;;9.812967840151993;43.51694120535689
46382;BME280;66809;52.974;-2.514;2023-03-18T00:29:47;995.173622754975;;;9.809833887935365;43.510080493207326
46382;BME280;66809;52.974;-2.514;2023-03-18T00:31:48;995.1758382950411;;;9.810717015132125;43.50252868423611
46382;BME280;66809;52.974;-2.514;2023-03-18T00:33:48;995.1802996076786;;;9.800124114110321;43.498397156231505
46382;BME280;66809;52.974;-2.514;2023-03-18T00:35:47;995.1838460610003;;;9.79121798603098;43.49366653997575
46382;BME280;66809;52.974;-2.514;2023-03-18T00:37:48;995.188000833469;;;9.782185830212446;43.48570736528117
46382;BME280;66809;52.974;-2.514;2023-03-18T00:39:48;995.1926312406687;;;9.773817431816184;43.4759898417509
46382;BME280;66809;52.974;-2.514;2023-03-18T00:41:47;995.1978560782261;;;9.769597590214273;43.46969433709102
46382;BME280;66809;52.974;-2.514;2023-03-18T00:43:48;995.2036420651659;;;9.769504049723793;43.46466387624887
46382;BME280;66809;52.974;-2.514;2023-03-18T00:45:49;995.21047365955;;;9.774015732228102;43.46080264074511
46382;BME280;66809;52.974;-2.514;2023-03-18T00:47:48;995.2179681789917;;;9.761933643377837;43.46006922244644
46382;BME280;66809;52.974;-2.514;2023-03-18T00:49:48;995.2270989200462;;;9.752523390606767;43.458564287823926
46382;BME280;66809;52.974;-2.514;2023-03-18T00:51:48;995.2373193601383;;;9.744171790102408;43.456183634696494
46382;BME280;66809;52.974;-2.514;2023-03-18T00:53:49;995.2466678100668;;;9.728198648691928;43.45839315392709
46382;BME280;66809;52.974;-2.514;2023-03-18T00:55:48;995.2568244079146;;;9.70986953049006;43.45835822615291
46382;BME280;66809;52.974;-2.514;2023-03-18T00:57:48;995.2648986997525;;;9.70780355184644;43.45774037401198
46382;BME280;66809;52.974;-2.514;2023-03-18T00:59:47;995.2729767879538;;;9.703398858840869;43.45721517772889
46382;BME280;66809;52.974;-2.514;2023-03-18T01:01:48;995.2811959760896;;;9.694230219450805;43.46195537671661
46382;BME280;66809;52.974;-2.514;2023-03-18T01:03:48;995.2896454588456;;;9.67873985238927;43.473144457253824
46382;BME280;66809;52.974;-2.514;2023-03-18T01:05:47;995.2977130424646;;;9.668084055685785;43.48600015435654
46382;BME280;66809;52.974;-2.514;2023-03-18T01:07:48;995.3059473030593;;;9.656758135269378;43.495839104559145
46382;BME280;66809;52.974;-2.514;2023-03-18T01:09:48;995.3137210204677;;;9.658865916387326;43.504907921212016
46382;BME280;66809;52.974;-2.514;2023-03-18T01:11:48;995.3207410324178;;;9.650001794454958;43.51612285282324
46382;BME280;66809;52.974;-2.514;2023-03-18T01:13:48;995.3272456148808;;;9.637980554910786;43.523722214275146
46382;BME280;66809;52.974;-2.514;2023-03-18T01:15:48;995.3330697627957;;;9.652412978262882;43.53083501283743
46382;BME280;66809;52.974;-2.514;2023-03-18T01:17:47;995.3376690702029;;;9.636475485026349;43.54078779552431
46382;BME280;66809;52.974;-2.514;2023-03-18T01:19:48;995.3422295969966;;;9.633257517529774;43.54771766531322
46382;BME280;66809;52.974;-2.514;2023-03-18T01:21:48;995.3467066038526;;;9.639891949810933;43.5632370566794
46382;BME280;66809;52.974;-2.514;2023-03-18T01:23:48;995.3501033525;;;9.631128644754982;43.582870810914905
46382;BME280;66809;52.974;-2.514;2023-03-18T01:25:47;995.3534147460826;;;9.625457285240056;43.598502538216714
46382;BME280;66809;52.974;-2.514;2023-03-18T01:27:47;995.3555320071978;;;9.62142431942221;43.61374789448078
46382;BME280;66809;52.974;-2.514;2023-03-18T01:29:48;995.3582196661052;;;9.61796269096761;43.630462063243755
46382;BME280;66809;52.974;-2.514;2023-03-18T01:31:48;995.3616540025668;;;9.611046917908585;43.64581516780954
46382;BME280;66809;52.974;-2.514;2023-03-18T01:33:48;995.3635818956011;;;9.607567566498302;43.65550819842522
46382;BME280;66809;52.974;-2.514;2023-03-18T01:35:52;995.3660247708912;;;9.619835416541362;43.663359594278894
46382;BME280;66809;52.974;-2.514;2023-03-18T01:37:47;995.3684594416484;;;9.62601088865598;43.671991087677696
46382;BME280;66809;52.974;-2.514;2023-03-18T01:39:48;995.3711081086975;;;9.631581417230569;43.680425069024324
46382;BME280;66809;52.974;-2.514;2023-03-18T01:41:49;995.3737248315596;;;9.635891645124254;43.68591931876288
46382;BME280;66809;52.974;-2.514;2023-03-18T01:43:48;995.3758011016317;;;9.63192497621983;43.69512029164004
46382;BME280;66809;52.974;-2.514;2023-03-18T01:45:50;995.37725234227;;;9.617070418054912;43.70392798034956
46382;BME280;66809;52.974;-2.514;2023-03-18T01:47:48;995.3765970431358;;;9.629532435374802;43.70696378482377
46382;BME280;66809;52.974;-2.514;2023-03-18T01:49:49;995.3743527541798;;;9.6340032246778;43.714000338407075
46382;BME280;66809;52.974;-2.514;2023-03-18T01:51:51;995.3709859381306;;;9.641953367244016;43.72005009691797
46382;BME280;66809;52.974;-2.514;2023-03-18T01:53:48;995.3669919445707;;;9.63771876008131;43.721597582612844
46382;BME280;66809;52.974;-2.514;2023-03-18T01:55:49;995.3622574078339;;;9.63991602780712;43.72059053355574
46382;BME280;66809;52.974;-2.514;2023-03-18T01:57:49;995.3583375721573;;;9.623329558214415;43.72132915910576
46382;BME280;66809;52.974;-2.514;2023-03-18T01:59:49;995.3532912497406;;;9.622093366409093;43.72353115238134
46382;BME280;66809;52.974;-2.514;2023-03-18T02:01:51;995.3470440436852;;;9.608835021746753;43.72543300156273
46382;BME280;66809;52.974;-2.514;2023-03-18T02:03:50;995.3398501909327;;;9.598053246898177;43.720872650494535
46382;BME280;66809;52.974;-2.514;2023-03-18T02:05:49;995.333512317612;;;9.590669769952505;43.71453883619391
46382;BME280;66809;52.974;-2.514;2023-03-18T02:07:48;995.3281129141955;;;9.57870720836357;43.71463804206283
46382;BME280;66809;52.974;-2.514;2023-03-18T02:09:49;995.3226889467531;;;9.553190372728075;43.718837038087706
46382;BME280;66809;52.974;-2.514;2023-03-18T02:11:49;995.3172088471422;;;9.529698428985396;43.716977704831564
46382;BME280;66809;52.974;-2.514;2023-03-18T02:13:49;995.3125898763689;;;9.517077574066514;43.71677842804498
46382;BME280;66809;52.974;-2.514;2023-03-18T02:15:53;995.3079963950493;;;9.488806927365243;43.71325473775114
46382;BME280;66809;52.974;-2.514;2023-03-18T02:18:05;995.3029429548551;;;9.481312226534161;43.70836033261434
46382;BME280;66809;52.974;-2.514;2023-03-18T02:19:57;995.2973916565269;;;9.456627211419208;43.70473079122734
46382;BME280;66809;52.974;-2.514;2023-03-18T02:21:52;995.2913163617523;;;9.442606175787382;43.70129421511586
46382;BME280;66809;52.974;-2.514;2023-03-18T02:23:54;995.2852320220002;;;9.423431764907127;43.70038495197348
46382;BME280;66809;52.974;-2.514;2023-03-18T02:25:52;995.2786186672861;;;9.392109178524416;43.70122807188953
46382;BME280;66809;52.974;-2.514;2023-03-18T02:27:51;995.2724565342185;;;9.366685723449276;43.70167889254403
46382;BME280;66809;52.974;-2.514;2023-03-18T02:29:48;995.2652928044098;;;9.347094183690706;43.701053215159874
46382;BME280;66809;52.974;-2.514;2023-03-18T02:31:48;995.2568442564583;;;9.330365705199505;43.70286160783682
46382;BME280;66809;52.974;-2.514;2023-03-18T02:33:48;995.2493251535744;;;9.310116801142504;43.69967648803445
46382;BME280;66809;52.974;-2.514;2023-03-18T02:35:51;995.2425510421833;;;9.286596576286446;43.70243942092073
46382;BME280;66809;52.974;-2.514;2023-03-18T02:37:47;995.2356377882121;;;9.265700732705197;43.6974937912627
46382;BME280;66809;52.974;-2.514;2023-03-18T02:39:48;995.2295505840714;;;9.238841504295921;43.68961371760757
46382;BME280;66809;52.974;-2.514;2023-03-18T02:41:48;995.2246448101396;;;9.217895252788463;43.6847737338186
46382;BME280;66809;52.974;-2.514;2023-03-18T02:43:49;995.2216784806849;;;9.187699502421554;43.67133727316526
46382;BME280;66809;52.974;-2.514;2023-03-18T02:46:00;995.2192612754818;;;9.173498037650727;43.65458385653745
46382;BME280;66809;52.974;-2.514;2023-03-18T02:47:49;995.2185865173965;;;9.14618121461565;43.635109219796306
46382;BME280;66809;52.974;-2.514;2023-03-18T02:49:48;995.2189034367058;;;9.127223289307201;43.61122787249496
46382;BME280;66809;52.974;-2.514;2023-03-18T02:51:48;995.2202989319974;;;9.100870698865753;43.591154157923185
46382;BME280;66809;52.974;-2.514;2023-03-18T02:53:48;995.2220699932117;;;9.086728078224555;43.578313405760774
46382;BME280;66809;52.974;-2.514;2023-03-18T02:55:48;995.2245110473266;;;9.0738037508734;43.5709501410448
46382;BME280;66809;52.974;-2.514;2023-03-18T02:57:47;995.2273117833686;;;9.057974362024584;43.561835024867314
46382;BME280;66809;52.974;-2.514;2023-03-18T02:59:48;995.2316727309949;;;9.039262144625155;43.55272995479269
46382;BME280;66809;52.974;-2.514;2023-03-18T03:01:50;995.2353284159474;;;9.036058891504814;43.54003072915938
46382;BME280;66809;52.974;-2.514;2023-03-18T03:03:48;995.2390121851251;;;9.016146251856902;43.523640342243695
46382;BME280;66809;52.974;-2.514;2023-03-18T03:05:48;995.2428677918789;;;9.010294480938388;43.50677876097881
46382;BME280;66809;52.974;-2.514;2023-03-18T03:07:47;995.2464320916131;;;8.998968643398506;43.48729304242546
46382;BME280;66809;52.974;-2.514;2023-03-18T03:09:48;995.2506834854069;;;9.001698228641224;43.46703882768877
46382;BME280;66809;52.974;-2.514;2023-03-18T03:11:48;995.2553514588059;;;9.002472163244414;43.43682939365624
46382;BME280;66809;52.974;-2.514;2023-03-18T03:13:47;995.2596331378928;;;9.001663571578622;43.39538312877979
46382;BME280;66809;52.974;-2.514;2023-03-18T03:15:48;995.2651540595691;;;8.985920318278852;43.358123486472536
46382;BME280;66809;52.974;-2.514;2023-03-18T03:17:48;995.2731326968217;;;8.969227648973037;43.32174246601424
46382;BME280;66809;52.974;-2.514;2023-03-18T03:19:48;995.2817255665334;;;8.968411622182664;43.28516746115843
46382;BME280;66809;52.974;-2.514;2023-03-18T03:21:47;995.2913290051945;;;8.960856268655446;43.25054040041626
46382;BME280;66809;52.974;-2.514;2023-03-18T03:23:47;995.3020661142948;;;8.953583140005016;43.21944498831201
46382;BME280;66809;52.974;-2.514;2023-03-18T03:25:48;995.3140111854384;;;8.965177749779857;43.19002405922322
46382;BME280;66809;52.974;-2.514;2023-03-18T03:27:48;995.3267011034088;;;8.967242628365053;43.16334519108649
46382;BME280;66809;52.974;-2.514;2023-03-18T03:29:47;995.3398319191222;;;8.977211741426432;43.13579776493135
46382;BME280;66809;52.974;-2.514;2023-03-18T03:31:48;995.352813677864;;;8.980664944137677;43.09956644223842
46382;BME280;66809;52.974;-2.514;2023-03-18T03:33:48;995.3650559080596;;;8.97519631619968;43.06343732692654
46382;BME280;66809;52.974;-2.514;2023-03-18T03:35:48;995.3763058563744;;;8.980539954815972;43.016273662453095
46382;BME280;66809;52.974;-2.514;2023-03-18T03:37:48;995.3873059160777;;;8.979600935475851;42.97652844325755
46382;BME280;66809;52.974;-2.514;2023-03-18T03:39:47;995.3973458927798;;;8.983322996782855;42.93219004211208
46382;BME280;66809;52.974;-2.514;2023-03-18T03:41:48;995.4066321591771;;;8.97819140697759;42.88022095180598
46382;BME280;66809;52.974;-2.514;2023-03-18T03:43:48;995.4142653179198;;;8.981618373768823;42.82862960824368
46382;BME280;66809;52.974;-2.514;2023-03-18T03:45:47;995.421164861435;;;8.964564447673375;42.78152490280398
46382;BME280;66809;52.974;-2.514;2023-03-18T03:47:48;995.4277598596005;;;8.942719445959996;42.735963839953904
46382;BME280;66809;52.974;-2.514;2023-03-18T03:49:48;995.4338595917036;;;8.919469364529528;42.689811486369955
46382;BME280;66809;52.974;-2.514;2023-03-18T03:51:48;995.4401462080507;;;8.883752872187067;42.63272506106
46382;BME280;66809;52.974;-2.514;2023-03-18T03:53:47;995.4469827560374;;;8.844961308811046;42.581483699290196
46382;BME280;66809;52.974;-2.514;2023-03-18T03:55:48;995.4540554408923;;;8.810167086084554;42.53521278155194
46382;BME280;66809;52.974;-2.514;2023-03-18T03:57:48;995.4621343181033;;;8.777370560851752;42.492934668929394
46382;BME280;66809;52.974;-2.514;2023-03-18T03:59:48;995.4719723058594;;;8.736728632664171;42.455519872493774
46382;BME280;66809;52.974;-2.514;2023-03-18T04:01:47;995.4840191303996;;;8.708294677580449;42.4267725792513
46382;BME280;66809;52.974;-2.514;2023-03-18T04:03:48;995.4971628121725;;;8.681712605152152;42.413142707956304
46382;BME280;66809;52.974;-2.514;2023-03-18T04:05:48;995.5102011150141;;;8.628856277084472;42.40409002541475
46382;BME280;66809;52.974;-2.514;2023-03-18T04:07:48;995.5235687313451;;;8.597905201137829;42.39697342061287
46382;BME280;66809;52.974;-2.514;2023-03-18T04:09:48;995.5363951025648;;;8.55254584004344;42.38048943016633
46382;BME280;66809;52.974;-2.514;2023-03-18T04:11:47;995.5485822085252;;;8.514587579289064;42.36801343924514
46382;BME280;66809;52.974;-2.514;2023-03-18T04:13:48;995.5615953392097;;;8.462503258812065;42.36822544330444
46382;BME280;66809;52.974;-2.514;2023-03-18T04:15:48;995.5742198917873;;;8.423586245237331;42.37672680647846
46382;BME280;66809;52.974;-2.514;2023-03-18T04:17:48;995.5854885353785;;;8.386803326550297;42.391854436346485
46382;BME280;66809;52.974;-2.514;2023-03-18T04:19:48;995.5971004156606;;;8.357065149753597;42.407369469124646
46382;BME280;66809;52.974;-2.514;2023-03-18T04:21:48;995.6078155135734;;;8.327511804225841;42.42181098012379
46382;BME280;66809;52.974;-2.514;2023-03-18T04:23:48;995.6188371766766;;;8.296459929176658;42.433326779562016
46382;BME280;66809;52.974;-2.514;2023-03-18T04:25:48;995.629573461778;;;8.260788965504686;42.443375859861234
46382;BME280;66809;52.974;-2.514;2023-03-18T04:27:48;995.6398706905552;;;8.230983501119518;42.45029838372169
46382;BME280;66809;52.974;-2.514;2023-03-18T04:29:48;995.6505388177223;;;8.179813930883155;42.4544925443604
46382;BME280;66809;52.974;-2.514;2023-03-18T04:31:47;995.6616610589587;;;8.133372640412336;42.45431746459334
46382;BME280;66809;52.974;-2.514;2023-03-18T04:33:47;995.6725463187198;;;8.108597896899187;42.46020477369526
46382;BME280;66809;52.974;-2.514;2023-03-18T04:35:48;995.683949212025;;;8.06850105800918;42.473708191843606
46382;BME280;66809;52.974;-2.514;2023-03-18T04:37:48;995.6965445865153;;;8.044658956742728;42.48838202156339
46382;BME280;66809;52.974;-2.514;2023-03-18T04:39:48;995.7099047107181;;;8.00749142278519;42.51010175660835
46382;BME280;66809;52.974;-2.514;2023-03-18T04:41:48;995.7248356334793;;;7.981171747784464;42.54394406899504
46382;BME280;66809;52.974;-2.514;2023-03-18T04:43:48;995.7408963543553;;;7.95308866962693;42.58775671511191
46382;BME280;66809;52.974;-2.514;2023-03-18T04:45:47;995.7585640411737;;;7.937992967795585;42.63548285365627
46382;BME280;66809;52.974;-2.514;2023-03-18T04:47:48;995.7756500600706;;;7.930837069836239;42.69385378285615
46382;BME280;66809;52.974;-2.514;2023-03-18T04:49:48;995.7922640042993;;;7.919368502629596;42.75897578755523
46382;BME280;66809;52.974;-2.514;2023-03-18T04:51:47;995.8082374076241;;;7.927650792536311;42.83203774649893
46382;BME280;66809;52.974;-2.514;2023-03-18T04:53:48;995.8233171171671;;;7.944939892677723;42.895565492715626
46382;BME280;66809;52.974;-2.514;2023-03-18T04:55:48;995.8395466602211;;;7.962793881374287;42.952969547669895
46382;BME280;66809;52.974;-2.514;2023-03-18T04:57:48;995.8553197624847;;;7.981742071946654;43.01049132667354
46382;BME280;66809;52.974;-2.514;2023-03-18T04:59:48;995.8695199531788;;;8.006796464832323;43.062947526670506
46382;BME280;66809;52.974;-2.514;2023-03-18T05:01:47;995.883645114832;;;8.013645889503715;43.11132056922902
46382;BME280;66809;52.974;-2.514;2023-03-18T05:03:48;995.8959442206198;;;8.03604081177813;43.15220555645077
46382;BME280;66809;52.974;-2.514;2023-03-18T05:05:48;995.9073175531372;;;8.075485677014587;43.18793642035773
46382;BME280;66809;52.974;-2.514;2023-03-18T05:07:48;995.9189697296965;;;8.103406086952226;43.218027846795714
46382;BME280;66809;52.974;-2.514;2023-03-18T05:09:47;995.9306414304099;;;8.136135346015243;43.258368003082374
46382;BME280;66809;52.974;-2.514;2023-03-18T05:11:48;995.9432320573262;;;8.172074121613495;43.3025193505277
46382;BME280;66809;52.974;-2.514;2023-03-18T05:13:48;995.9547825899525;;;8.21482485824959;43.33780391691683
46382;BME280;66809;52.974;-2.514;2023-03-18T05:15:48;995.9653350879223;;;8.257432750875953;43.367540870281786
46382;BME280;66809;52.974;-2.514;2023-03-18T05:17:47;995.9754318769843;;;8.296228154018513;43.388805551878846
46382;BME280;66809;52.974;-2.514;2023-03-18T05:19:48;995.9847596669554;;;8.331216519170251;43.40695981789832
46382;BME280;66809;52.974;-2.514;2023-03-18T05:21:48;995.9942371480687;;;8.362624699535498;43.419559135217504
46382;BME280;66809;52.974;-2.514;2023-03-18T05:23:47;996.0021356286967;;;8.390181367521157;43.430494687935884
46382;BME280;66809;52.974;-2.514;2023-03-18T05:25:48;996.0098466538818;;;8.427085420189522;43.437819077986696
46382;BME280;66809;52.974;-2.514;2023-03-18T05:27:48;996.0176560643197;;;8.460427070803616;43.44786561109762
46382;BME280;66809;52.974;-2.514;2023-03-18T05:29:47;996.0253289906724;;;8.499884332209378;43.46335726450461
46382;BME280;66809;52.974;-2.514;2023-03-18T05:31:48;996.0326915622823;;;8.529969032552197;43.49191518247107
46382;BME280;66809;52.974;-2.514;2023-03-18T05:33:48;996.0402099056612;;;8.560244015482725;43.51764479884071
46382;BME280;66809;52.974;-2.514;2023-03-18T05:35:47;996.0482735152698;;;8.58826085487068;43.542605490263405
46382;BME280;66809;52.974;-2.514;2023-03-18T05:37:47;996.0567182641026;;;8.61348727852496;43.56103748666767
46382;BME280;66809;52.974;-2.514;2023-03-18T05:39:48;996.0652760345025;;;8.660901189558617;43.57830153012705
46382;BME280;66809;52.974;-2.514;2023-03-18T05:41:48;996.0723067492739;;;8.702592428272423;43.593226433016774
46382;BME280;66809;52.974;-2.514;2023-03-18T05:43:47;996.0786046948032;;;8.746704411674871;43.60121673590463
46382;BME280;66809;52.974;-2.514;2023-03-18T05:45:48;996.0837270944857;;;8.782660119751418;43.605395363254814
46382;BME280;66809;52.974;-2.514;2023-03-18T05:47:48;996.0899271548313;;;8.817422755548328;43.6027473114373
46382;BME280;66809;52.974;-2.514;2023-03-18T05:49:47;996.0971123352883;;;8.85475440833879;43.59511720272508
46382;BME280;66809;52.974;-2.514;2023-03-18T05:51:49;996.1052132648335;;;8.883593730559353;43.58873605303957
46382;BME280;66809;52.974;-2.514;2023-03-18T05:53:47;996.1137967536016;;;8.91212861641147;43.580675876644015
46382;BME280;66809;52.974;-2.514;2023-03-18T05:55:47;996.1207424286149;;;8.93645415379986;43.573184853810176
46382;BME280;66809;52.974;-2.514;2023-03-18T05:57:48;996.1275784749683;;;8.963382311666527;43.560414658350666
46382;BME280;66809;52.974;-2.514;2023-03-18T05:59:47;996.1338578873198;;;8.980778258978882;43.549598473984354
46382;BME280;66809;52.974;-2.514;2023-03-18T06:01:49;996.1400582120601;;;9.011781371995673;43.5325472885532
46382;BME280;66809;52.974;-2.514;2023-03-18T06:03:48;996.1473501020103;;;9.042198376440627;43.5060288936565
46382;BME280;66809;52.974;-2.514;2023-03-18T06:05:48;996.1542310419447;;;9.049923813105984;43.47891252356614
46382;BME280;66809;52.974;-2.514;2023-03-18T06:07:47;996.160409433996;;;9.059381021779624;43.45314426791336
46382;BME280;66809;52.974;-2.514;2023-03-18T06:09:48;996.1668126992806;;;9.082219505319603;43.42570566391636
46382;BME280;66809;52.974;-2.514;2023-03-18T06:11:48;996.1733238370141;;;9.098892962841642;43.40021483791762
46382;BME280;66809;52.974;-2.514;2023-03-18T06:13:47;996.1814179655394;;;9.11066417171478;43.37863434301736
46382;BME280;66809;52.974;-2.514;2023-03-18T06:15:49;996.1911618301025;;;9.121348088938115;43.351302797062644
46382;BME280;66809;52.974;-2.514;2023-03-18T06:17:48;996.2025669679989;;;9.14049918909483;43.31694173871537
46382;BME280;66809;52.974;-2.514;2023-03-18T06:19:48;996.214354945804;;;9.154776223655324;43.27543672146655
46382;BME280;66809;52.974;-2.514;2023-03-18T06:21:48;996.2264474996189;;;9.17089331899109;43.23372340538044
46382;BME280;66809;52.974;-2.514;2023-03-18T06:23:47;996.2406806430624;;;9.199390920279367;43.18975488705311
46382;BME280;66809;52.974;-2.514;2023-03-18T06:25:48;996.2550712794806;;;9.216661150316549;43.14597984896162
46382;BME280;66809;52.974;-2.514;2023-03-18T06:27:49;996.2697065421003;;;9.243532830889754;43.09645020421521
46382;BME280;66809;52.974;-2.514;2023-03-18T06:29:48;996.2845521751755;;;9.274294628487427;43.041651974537416
46382;BME280;66809;52.974;-2.514;2023-03-18T06:31:48;996.3002524060777;;;9.30372052140928;42.977355356522054
46382;BME280;66809;52.974;-2.514;2023-03-18T06:33:48;996.3173531545746;;;9.33598631266644;42.92254729847605
46382;BME280;66809;52.974;-2.514;2023-03-18T06:35:48;996.3335090027388;;;9.362666809449882;42.865584442563915
46382;BME280;66809;52.974;-2.514;2023-03-18T06:37:48;996.3491357513316;;;9.385143364420232;42.81261255826921
46382;BME280;66809;52.974;-2.514;2023-03-18T06:39:47;996.3645054295023;;;9.408797140062376;42.76011133018505
46382;BME280;66809;52.974;-2.514;2023-03-18T06:41:48;996.3804180456847;;;9.430997377825289;42.71044398049822
46382;BME280;66809;52.974;-2.514;2023-03-18T06:43:48;996.3965733144277;;;9.455558575577;42.66009582143087
46382;BME280;66809;52.974;-2.514;2023-03-18T06:45:47;996.4131999738443;;;9.478869900411791;42.607606619946026
46382;BME280;66809;52.974;-2.514;2023-03-18T06:47:48;996.4298925307943;;;9.504348941961622;42.55385215660886
46382;BME280;66809;52.974;-2.514;2023-03-18T06:49:48;996.4468814010004;;;9.53159241125946;42.50186181901939
46382;BME280;66809;52.974;-2.514;2023-03-18T06:51:48;996.4633734661516;;;9.567990008958418;42.44624267282234
46382;BME280;66809;52.974;-2.514;2023-03-18T06:53:47;996.4789141510153;;;9.598793890971809;42.390429392478985
46382;BME280;66809;52.974;-2.514;2023-03-18T06:55:48;996.4947752305967;;;9.630328747068818;42.333741107071916
46382;BME280;66809;52.974;-2.514;2023-03-18T06:57:48;996.510228061623;;;9.658093144048474;42.27704898078401
46382;BME280;66809;52.974;-2.514;2023-03-18T06:59:48;996.5256630282641;;;9.69580985629741;42.21732773943386
46382;BME280;66809;52.974;-2.514;2023-03-18T07:01:48;996.5395104028969;;;9.723748702925995;42.1613943184175
46382;BME280;66809;52.974;-2.514;2023-03-18T07:03:47;996.5546759560997;;;9.751038609737313;42.11530659801243
46382;BME280;66809;52.974;-2.514;2023-03-18T07:05:48;996.570678629235;;;9.795266785700731;42.074111139789814
46382;BME280;66809;52.974;-2.514;2023-03-18T07:07:48;996.5863853881896;;;9.831320923025638;42.03340861997495
46382;BME280;66809;52.974;-2.514;2023-03-18T07:09:47;996.6023629236423;;;9.858083564896033;41.99515232200122
46382;BME280;66809;52.974;-2.514;2023-03-18T07:11:48;996.618301284882;;;9.881677743227128;41.951316990829156
46382;BME280;66809;52.974;-2.514;2023-03-18T07:13:48;996.633372911588;;;9.926336503631825;41.906791030359074
46382;BME280;66809;52.974;-2.514;2023-03-18T07:15:47;996.6479303977363;;;9.96594475623277;41.863239953336844
46382;BME280;66809;52.974;-2.514;2023-03-18T07:17:49;996.6611668665292;;;9.993455265956973;41.82348271622366